Time;durP1;ratioP1;P1;durP2;ratioP2;P2;SDS_P1;SDS_P2;PMS_P1;PMS_P2;Temp;Humidity;BMP_temperature;BMP_pressure;BME280_temperature;BME280_humidity;BME280_pressure;Samples;Min_cycle;Max_cycle;Signal;HPM_P1;HPM_P2
2022/11/15 00:03:27;;;;;;;38.75;29.55;;;;;;;;;;10028642;28;20494;-70
2022/11/15 00:08:40;;;;;;;40.72;29.30;;;;;;;;;;10027538;28;20140;-69
2022/11/15 00:13:51;;;;;;;43.58;29.58;;;;;;;;;;10036910;28;20051;-69
2022/11/15 00:19:02;;;;;;;41.70;29.15;;;;;;;;;;10033349;28;20077;-69
2022/11/15 00:24:14;;;;;;;34.53;25.40;;;;;;;;;;10033941;28;20069;-69
2022/11/15 00:29:25;;;;;;;33.30;24.05;;;;;;;;;;10033222;28;20100;-69
2022/11/15 00:34:37;;;;;;;35.45;26.10;;;;;;;;;;10037185;28;20061;-69
2022/11/15 00:39:49;;;;;;;37.53;26.80;;;;;;;;;;10033481;28;20519;-69
2022/11/15 00:45:02;;;;;;;38.20;27.90;;;;;;;;;;10034506;28;20419;-69
2022/11/15 00:50:13;;;;;;;39.53;27.48;;;;;;;;;;10034140;28;20476;-69
2022/11/15 00:55:26;;;;;;;38.50;27.48;;;;;;;;;;10029644;28;20575;-68
2022/11/15 01:00:38;;;;;;;37.22;26.73;;;;;;;;;;10039998;28;20056;-68
2022/11/15 01:05:49;;;;;;;37.85;26.92;;;;;;;;;;10035523;28;20052;-69
2022/11/15 01:11:07;;;;;;;40.80;27.77;;;;;;;;;;10031841;28;20057;-69
2022/11/15 01:16:18;;;;;;;39.22;27.88;;;;;;;;;;10035187;28;20088;-68
2022/11/15 01:21:30;;;;;;;40.95;28.73;;;;;;;;;;10025017;28;20065;-68
2022/11/15 01:26:42;;;;;;;40.47;29.38;;;;;;;;;;10029742;28;20057;-69
2022/11/15 01:31:54;;;;;;;33.47;23.65;;;;;;;;;;10036856;28;20634;-68
2022/11/15 01:37:06;;;;;;;36.42;27.10;;;;;;;;;;10038338;28;20492;-68
2022/11/15 01:42:18;;;;;;;40.97;27.80;;;;;;;;;;10028684;28;20517;-71
2022/11/15 01:47:34;;;;;;;40.80;27.52;;;;;;;;;;10027814;28;20061;-69
2022/11/15 01:52:46;;;;;;;36.45;25.67;;;;;;;;;;10033297;28;20408;-69
2022/11/15 01:58:01;;;;;;;38.25;26.17;;;;;;;;;;10033095;28;20136;-68
2022/11/15 02:03:14;;;;;;;37.47;26.65;;;;;;;;;;10032472;28;20140;-69
2022/11/15 02:08:26;;;;;;;32.03;22.95;;;;;;;;;;10029390;28;20088;-70
2022/11/15 02:13:38;;;;;;;29.30;21.65;;;;;;;;;;10033598;28;20458;-70
2022/11/15 02:19:03;;;;;;;33.05;23.83;;;;;;;;;;10033280;28;20100;-69
2022/11/15 02:24:30;;;;;;;34.00;22.15;;;;;;;;;;10043753;28;20466;-72
2022/11/15 02:30:11;;;;;;;31.15;22.77;;;;;;;;;;10043280;28;20061;-72
2022/11/15 02:36:00;;;;;;;33.53;23.35;;;;;;;;;;10043593;28;20076;-68
2022/11/15 02:41:18;;;;;;;30.25;21.58;;;;;;;;;;10035583;28;20111;-71
2022/11/15 02:47:23;;;;;;;32.13;23.45;;;;;;;;;;10032395;28;20107;-71
2022/11/15 02:52:08;;;;;;;29.08;21.67;;;;;;;;;;10022188;28;20061;-71
2022/11/15 02:57:44;;;;;;;28.92;21.20;;;;;;;;;;10038492;28;20076;-71
2022/11/15 03:03:34;;;;;;;26.38;21.05;;;;;;;;;;10036681;28;20056;-70
2022/11/15 03:09:03;;;;;;;30.92;22.00;;;;;;;;;;10030684;28;20061;-70
2022/11/15 03:14:15;;;;;;;29.20;21.43;;;;;;;;;;10028306;28;20108;-70
2022/11/15 03:19:47;;;;;;;28.52;21.10;;;;;;;;;;10027185;28;20116;-69
2022/11/15 03:25:03;;;;;;;29.92;20.38;;;;;;;;;;10023110;28;20080;-69
2022/11/15 03:30:15;;;;;;;32.47;21.40;;;;;;;;;;10038120;28;20088;-69
2022/11/15 03:35:39;;;;;;;28.42;20.83;;;;;;;;;;10031068;28;20053;-69
2022/11/15 03:41:32;;;;;;;30.52;20.65;;;;;;;;;;10034191;28;20095;-69
2022/11/15 03:46:53;;;;;;;33.30;23.95;;;;;;;;;;10051939;28;20100;-69
2022/11/15 03:52:06;;;;;;;32.40;24.30;;;;;;;;;;10039779;28;20115;-68
2022/11/15 03:57:18;;;;;;;32.97;22.33;;;;;;;;;;10048245;28;20056;-69
2022/11/15 04:02:30;;;;;;;34.13;22.98;;;;;;;;;;10049254;28;20061;-69
2022/11/15 04:07:42;;;;;;;32.20;24.00;;;;;;;;;;10046082;28;20068;-69
2022/11/15 04:12:54;;;;;;;34.22;25.67;;;;;;;;;;10034921;28;20124;-70
2022/11/15 04:18:07;;;;;;;32.30;22.55;;;;;;;;;;10040450;28;20120;-70
2022/11/15 04:34:20;;;;;;;29.58;19.45;;;;;;;;;;10024540;28;20530;-70
2022/11/15 04:39:32;;;;;;;27.58;20.30;;;;;;;;;;10028998;28;20052;-69
2022/11/15 04:44:44;;;;;;;36.85;22.25;;;;;;;;;;10033615;28;20108;-69
2022/11/15 04:49:56;;;;;;;27.45;20.65;;;;;;;;;;10055507;28;20107;-70
2022/11/15 04:55:09;;;;;;;30.17;19.23;;;;;;;;;;10041902;28;20464;-70
2022/11/15 05:00:22;;;;;;;25.75;21.05;;;;;;;;;;10040679;28;20084;-69
2022/11/15 05:05:34;;;;;;;28.08;19.30;;;;;;;;;;10034522;28;20092;-70
2022/11/15 05:10:46;;;;;;;30.10;20.00;;;;;;;;;;10042952;28;20103;-69
2022/11/15 05:15:58;;;;;;;32.10;22.13;;;;;;;;;;10031077;28;20057;-69
2022/11/15 05:21:12;;;;;;;27.85;20.95;;;;;;;;;;10029332;28;20539;-70
2022/11/15 05:26:24;;;;;;;29.42;21.90;;;;;;;;;;10034852;28;20056;-70
2022/11/15 05:31:40;;;;;;;33.08;22.38;;;;;;;;;;10041055;28;20520;-70
2022/11/15 05:36:53;;;;;;;28.00;21.73;;;;;;;;;;10031647;28;20135;-70
2022/11/15 05:42:09;;;;;;;29.08;20.45;;;;;;;;;;10032699;28;20073;-69
2022/11/15 05:47:24;;;;;;;34.50;21.75;;;;;;;;;;10036455;28;20125;-70
2022/11/15 05:52:37;;;;;;;29.45;19.98;;;;;;;;;;10029847;28;20104;-70
2022/11/15 05:57:48;;;;;;;27.27;19.70;;;;;;;;;;10027842;28;20116;-68
2022/11/15 06:03:01;;;;;;;29.33;19.23;;;;;;;;;;10026890;28;20044;-68
2022/11/15 06:08:13;;;;;;;29.42;19.63;;;;;;;;;;10035424;28;20052;-69
2022/11/15 06:13:25;;;;;;;34.38;21.35;;;;;;;;;;10030767;28;20522;-72
2022/11/15 06:18:37;;;;;;;25.85;19.25;;;;;;;;;;10028568;28;20063;-70
2022/11/15 06:23:49;;;;;;;27.02;20.13;;;;;;;;;;10033466;28;20150;-70
2022/11/15 06:29:04;;;;;;;23.80;17.35;;;;;;;;;;10037740;28;20099;-70
2022/11/15 06:34:16;;;;;;;23.80;16.50;;;;;;;;;;10031817;28;20100;-70
2022/11/15 06:39:27;;;;;;;26.77;19.63;;;;;;;;;;10024615;28;20444;-69
2022/11/15 06:44:40;;;;;;;31.23;19.45;;;;;;;;;;10020557;28;20065;-68
2022/11/15 06:49:52;;;;;;;25.83;20.48;;;;;;;;;;10024069;28;20056;-69
2022/11/15 06:55:06;;;;;;;27.77;22.67;;;;;;;;;;10036701;28;20448;-70
2022/11/15 07:00:21;;;;;;;26.02;19.02;;;;;;;;;;10042605;28;20088;-70
2022/11/15 07:05:32;;;;;;;26.13;19.95;;;;;;;;;;10035192;28;20128;-70
2022/11/15 07:10:44;;;;;;;46.42;23.50;;;;;;;;;;10029652;28;20100;-70
2022/11/15 07:15:56;;;;;;;31.80;23.98;;;;;;;;;;10041596;28;20053;-69
2022/11/15 07:21:10;;;;;;;39.13;23.52;;;;;;;;;;10028431;28;20127;-69
2022/11/15 07:26:22;;;;;;;32.33;21.58;;;;;;;;;;10034696;28;20076;-69
2022/11/15 07:31:35;;;;;;;38.40;22.90;;;;;;;;;;10039311;28;20056;-67
2022/11/15 07:36:47;;;;;;;34.90;21.35;;;;;;;;;;10038907;28;20104;-69
2022/11/15 07:47:30;;;;;;;46.30;21.85;;;;;;;;;;10046840;28;20068;-69
2022/11/15 07:52:42;;;;;;;38.08;24.60;;;;;;;;;;10023836;28;20103;-70
2022/11/15 07:58:22;;;;;;;33.85;23.45;;;;;;;;;;10030227;28;20195;-70
2022/11/15 08:03:35;;;;;;;34.88;26.23;;;;;;;;;;10045887;28;20057;-70
2022/11/15 08:08:48;;;;;;;39.50;30.45;;;;;;;;;;10022672;28;20092;-69
2022/11/15 08:13:58;;;;;;;37.10;25.38;;;;;;;;;;10048291;28;20055;-70
2022/11/15 08:19:11;;;;;;;34.63;23.40;;;;;;;;;;10031508;28;20420;-70
2022/11/15 08:24:24;;;;;;;31.92;21.55;;;;;;;;;;10041729;28;20088;-70
2022/11/15 08:29:36;;;;;;;33.55;23.55;;;;;;;;;;10041183;28;20077;-70
2022/11/15 08:34:47;;;;;;;38.67;25.50;;;;;;;;;;10047305;28;20460;-70
2022/11/15 08:39:59;;;;;;;48.75;28.05;;;;;;;;;;10041441;28;20527;-69
2022/11/15 08:45:12;;;;;;;42.88;27.08;;;;;;;;;;10046382;28;20061;-69
2022/11/15 08:50:23;;;;;;;42.70;26.85;;;;;;;;;;10053132;28;20146;-69
2022/11/15 08:55:37;;;;;;;47.40;30.05;;;;;;;;;;10038634;28;20053;-69
2022/11/15 09:00:49;;;;;;;47.80;30.83;;;;;;;;;;10052202;28;20124;-70
2022/11/15 09:06:01;;;;;;;52.75;33.13;;;;;;;;;;10031565;28;20049;-68
2022/11/15 09:11:16;;;;;;;41.15;30.55;;;;;;;;;;10035818;28;20057;-68
2022/11/15 09:16:30;;;;;;;56.95;29.40;;;;;;;;;;10041834;28;20056;-69
2022/11/15 09:21:42;;;;;;;53.83;30.55;;;;;;;;;;10048756;28;20119;-69
2022/11/15 09:26:55;;;;;;;44.78;29.27;;;;;;;;;;10042271;28;20137;-68
2022/11/15 09:32:07;;;;;;;43.50;27.48;;;;;;;;;;10052145;28;20065;-69
2022/11/15 09:37:20;;;;;;;38.85;26.48;;;;;;;;;;10032835;28;20176;-68
2022/11/15 09:42:53;;;;;;;40.28;26.52;;;;;;;;;;10038200;28;20139;-68
2022/11/15 09:48:29;;;;;;;46.80;29.17;;;;;;;;;;10039529;28;20041;-69
2022/11/15 09:53:49;;;;;;;35.80;26.77;;;;;;;;;;10023797;28;20061;-68
2022/11/15 09:59:17;;;;;;;37.50;25.60;;;;;;;;;;10049405;28;20404;-69
2022/11/15 10:04:13;;;;;;;39.92;28.27;;;;;;;;;;10039708;28;20456;-69
2022/11/15 10:09:24;;;;;;;36.45;25.33;;;;;;;;;;10034268;28;20156;-68
2022/11/15 10:14:23;;;;;;;39.08;25.30;;;;;;;;;;10043079;28;20073;-68
2022/11/15 10:19:19;;;;;;;43.95;28.88;;;;;;;;;;10032967;28;20504;-68
2022/11/15 10:24:16;;;;;;;41.17;27.25;;;;;;;;;;10043692;28;20453;-68
2022/11/15 10:29:10;;;;;;;46.80;29.42;;;;;;;;;;10027992;28;20053;-68
2022/11/15 10:34:18;;;;;;;36.70;26.48;;;;;;;;;;10050303;28;20054;-69
2022/11/15 10:39:14;;;;;;;41.55;27.52;;;;;;;;;;10027098;28;20080;-68
2022/11/15 10:44:07;;;;;;;40.13;27.77;;;;;;;;;;10044047;28;20104;-69
2022/11/15 10:49:24;;;;;;;37.30;25.60;;;;;;;;;;10049275;28;20049;-69
2022/11/15 10:54:28;;;;;;;43.53;30.05;;;;;;;;;;10049350;28;20081;-69
2022/11/15 10:59:31;;;;;;;44.47;29.73;;;;;;;;;;10025736;28;20042;-69
2022/11/15 11:04:49;;;;;;;46.13;29.80;;;;;;;;;;10031957;28;20092;-70
2022/11/15 11:09:44;;;;;;;45.22;29.20;;;;;;;;;;10050474;28;20455;-70
2022/11/15 11:14:40;;;;;;;45.50;31.15;;;;;;;;;;10041062;28;20396;-70
2022/11/15 11:19:44;;;;;;;42.33;30.13;;;;;;;;;;10038924;28;20053;-70
2022/11/15 11:24:53;;;;;;;48.95;31.20;;;;;;;;;;10049560;28;20049;-70
2022/11/15 11:29:58;;;;;;;43.33;30.35;;;;;;;;;;10032401;28;20065;-70
2022/11/15 11:35:11;;;;;;;48.85;34.22;;;;;;;;;;10038571;28;20052;-70
2022/11/15 11:40:30;;;;;;;51.85;32.42;;;;;;;;;;10040306;28;20142;-69
2022/11/15 11:45:36;;;;;;;54.13;34.33;;;;;;;;;;10043432;28;20065;-69
2022/11/15 11:50:31;;;;;;;54.88;33.88;;;;;;;;;;10034620;28;20037;-68
2022/11/15 11:55:40;;;;;;;50.00;34.05;;;;;;;;;;10040854;28;20089;-68
2022/11/15 12:00:39;;;;;;;46.95;31.30;;;;;;;;;;10027249;28;20053;-68
2022/11/15 12:05:54;;;;;;;51.90;32.83;;;;;;;;;;10021456;28;20049;-70
2022/11/15 12:11:03;;;;;;;49.55;32.08;;;;;;;;;;10033938;28;20080;-68
2022/11/15 12:16:13;;;;;;;52.67;33.25;;;;;;;;;;10033504;28;20428;-68
2022/11/15 12:21:31;;;;;;;55.47;34.78;;;;;;;;;;10032303;28;20064;-67
2022/11/15 12:26:37;;;;;;;50.70;33.30;;;;;;;;;;10030659;28;20061;-67
2022/11/15 12:31:51;;;;;;;48.65;33.38;;;;;;;;;;10026290;28;20054;-68
2022/11/15 12:36:49;;;;;;;51.92;36.03;;;;;;;;;;10031960;28;20133;-67
2022/11/15 12:41:55;;;;;;;;;;;;;;;;;;10031317;28;20081;-67
2022/11/15 12:46:51;;;;;;;51.45;35.58;;;;;;;;;;10040748;28;20447;-66
2022/11/15 12:52:03;;;;;;;56.92;34.72;;;;;;;;;;10029753;28;20125;-67
2022/11/15 12:57:07;;;;;;;51.42;32.42;;;;;;;;;;10029132;28;20133;-66
2022/11/15 13:02:21;;;;;;;48.72;32.75;;;;;;;;;;10029543;28;20091;-66
2022/11/15 13:07:58;;;;;;;51.22;34.40;;;;;;;;;;10029714;28;20504;-66
2022/11/15 13:13:04;;;;;;;40.07;29.27;;;;;;;;;;9962417;28;20054;-66
2022/11/15 13:18:01;;;;;;;41.45;29.60;;;;;;;;;;10022803;28;20695;-66
2022/11/15 13:23:04;;;;;;;40.65;28.50;;;;;;;;;;10058608;28;20037;-66
2022/11/15 13:28:02;;;;;;;45.70;31.38;;;;;;;;;;10038774;28;20061;-66
2022/11/15 13:33:16;;;;;;;42.97;29.88;;;;;;;;;;10027550;28;20054;-67
2022/11/15 13:38:37;;;;;;;45.30;29.48;;;;;;;;;;10029693;28;20093;-66
2022/11/15 13:43:45;;;;;;;39.03;27.33;;;;;;;;;;10034843;28;20045;-66
2022/11/15 13:48:46;;;;;;;49.40;30.98;;;;;;;;;;10036064;28;20054;-66
2022/11/15 13:53:50;;;;;;;45.38;31.27;;;;;;;;;;10032977;28;20128;-66
2022/11/15 13:58:46;;;;;;;47.50;31.45;;;;;;;;;;10030337;28;20046;-66
2022/11/15 14:03:58;;;;;;;45.95;29.05;;;;;;;;;;10036235;28;20061;-66
2022/11/15 14:09:09;;;;;;;46.67;29.83;;;;;;;;;;10033068;28;20590;-66
2022/11/15 14:14:09;;;;;;;43.70;29.05;;;;;;;;;;10029534;28;20048;-66
2022/11/15 14:19:03;;;;;;;42.13;30.60;;;;;;;;;;10030427;28;20080;-66
2022/11/15 14:24:16;;;;;;;39.88;28.58;;;;;;;;;;10029175;28;20053;-66
2022/11/15 14:29:27;;;;;;;36.83;26.90;;;;;;;;;;10030386;28;20058;-66
2022/11/15 14:34:22;;;;;;;42.67;29.23;;;;;;;;;;10028089;28;20052;-65
2022/11/15 14:39:18;;;;;;;42.25;28.75;;;;;;;;;;10026844;28;20064;-64
2022/11/15 14:44:18;;;;;;;41.13;31.25;;;;;;;;;;10036058;28;20061;-64
2022/11/15 14:49:14;;;;;;;45.47;29.15;;;;;;;;;;10025491;28;20058;-65
2022/11/15 14:54:11;;;;;;;39.10;28.30;;;;;;;;;;10030982;28;20064;-65
2022/11/15 14:59:05;;;;;;;41.88;27.88;;;;;;;;;;10037910;28;20133;-65
2022/11/15 15:03:59;;;;;;;38.97;27.73;;;;;;;;;;10032594;28;20053;-65
2022/11/15 15:08:53;;;;;;;41.40;28.88;;;;;;;;;;10034220;28;20128;-65
2022/11/15 15:13:47;;;;;;;39.10;26.60;;;;;;;;;;10034681;28;20068;-65
2022/11/15 15:18:42;;;;;;;41.55;27.63;;;;;;;;;;10030707;28;20077;-65
2022/11/15 15:23:36;;;;;;;38.78;25.63;;;;;;;;;;10024927;28;20037;-65
2022/11/15 15:28:31;;;;;;;38.85;27.13;;;;;;;;;;10034480;28;20053;-65
2022/11/15 15:33:26;;;;;;;42.50;26.45;;;;;;;;;;10027514;28;20060;-65
2022/11/15 15:38:21;;;;;;;42.47;27.98;;;;;;;;;;10040380;28;20079;-65
2022/11/15 15:43:15;;;;;;;38.05;26.17;;;;;;;;;;10058019;28;20084;-65
2022/11/15 15:48:17;;;;;;;42.22;28.55;;;;;;;;;;10051971;28;20061;-65
2022/11/15 15:53:12;;;;;;;41.28;27.52;;;;;;;;;;10043533;28;20069;-65
2022/11/15 15:58:08;;;;;;;43.60;29.50;;;;;;;;;;10040022;28;20054;-65
2022/11/15 16:03:02;;;;;;;37.55;26.92;;;;;;;;;;10038001;28;20124;-65
2022/11/15 16:07:55;;;;;;;36.60;26.35;;;;;;;;;;10053116;28;20053;-66
2022/11/15 16:12:49;;;;;;;39.45;28.27;;;;;;;;;;10036441;28;20058;-66
2022/11/15 16:18:04;;;;;;;39.00;25.58;;;;;;;;;;10067448;28;20057;-65
2022/11/15 16:22:58;;;;;;;36.85;26.15;;;;;;;;;;10041631;28;20077;-65
2022/11/15 16:27:58;;;;;;;37.40;26.55;;;;;;;;;;10050334;28;20050;-65
2022/11/15 16:32:53;;;;;;;36.00;24.50;;;;;;;;;;10051397;28;20082;-66
2022/11/15 16:37:49;;;;;;;36.58;25.63;;;;;;;;;;10037742;28;20480;-65
2022/11/15 16:42:43;;;;;;;38.13;26.30;;;;;;;;;;10031749;28;20413;-66
2022/11/15 16:47:37;;;;;;;35.55;25.42;;;;;;;;;;10041902;28;20149;-66
2022/11/15 16:52:31;;;;;;;34.40;24.25;;;;;;;;;;10038565;28;20046;-66
2022/11/15 16:57:26;;;;;;;37.67;26.13;;;;;;;;;;10049840;28;20080;-65
2022/11/15 17:02:19;;;;;;;39.75;29.33;;;;;;;;;;10031498;28;20529;-66
2022/11/15 17:07:14;;;;;;;36.70;26.80;;;;;;;;;;10035669;28;20042;-66
2022/11/15 17:12:10;;;;;;;43.92;29.23;;;;;;;;;;10043844;28;20073;-66
2022/11/15 17:17:04;;;;;;;38.80;28.33;;;;;;;;;;10033222;28;20050;-66
2022/11/15 17:21:57;;;;;;;38.55;25.45;;;;;;;;;;10029207;28;20044;-66
2022/11/15 17:26:53;;;;;;;39.22;28.95;;;;;;;;;;10033214;28;20054;-66
2022/11/15 17:31:49;;;;;;;45.13;28.60;;;;;;;;;;10027285;28;20413;-66
2022/11/15 17:36:45;;;;;;;42.17;29.02;;;;;;;;;;10031814;28;20485;-66
2022/11/15 17:41:40;;;;;;;39.80;27.95;;;;;;;;;;10031093;28;20397;-65
2022/11/15 17:46:35;;;;;;;40.28;25.75;;;;;;;;;;10035234;28;20054;-66
2022/11/15 17:51:29;;;;;;;40.15;27.75;;;;;;;;;;10027272;28;20518;-66
2022/11/15 17:56:25;;;;;;;38.28;28.23;;;;;;;;;;10030766;28;20447;-65
2022/11/15 18:01:26;;;;;;;39.67;26.77;;;;;;;;;;10031239;28;20042;-65
2022/11/15 18:06:25;;;;;;;46.20;29.80;;;;;;;;;;10034196;28;20104;-65
2022/11/15 18:11:29;;;;;;;46.58;34.65;;;;;;;;;;10033471;28;20045;-66
2022/11/15 18:16:26;;;;;;;;;;;;;;;;;;10033450;28;20046;-66
2022/11/15 18:21:23;;;;;;;45.35;34.13;;;;;;;;;;10032285;28;19976;-67
2022/11/15 18:26:18;;;;;;;62.83;43.15;;;;;;;;;;10026372;28;20547;-67
2022/11/15 18:31:22;;;;;;;176.05;121.90;;;;;;;;;;10021874;28;20085;-66
2022/11/15 18:36:25;;;;;;;117.90;86.22;;;;;;;;;;10032440;28;20077;-66
2022/11/15 18:41:27;;;;;;;56.60;36.28;;;;;;;;;;10022290;28;20108;-66
2022/11/15 18:46:33;;;;;;;73.93;54.00;;;;;;;;;;10022295;28;20387;-66
2022/11/15 18:51:36;;;;;;;74.05;53.88;;;;;;;;;;10037868;28;20045;-66
2022/11/15 18:56:39;;;;;;;61.05;39.83;;;;;;;;;;10027680;28;20092;-70
2022/11/15 19:01:43;;;;;;;85.32;54.78;;;;;;;;;;10030580;28;20540;-70
2022/11/15 19:06:43;;;;;;;52.55;35.58;;;;;;;;;;10022031;28;20072;-70
2022/11/15 19:11:40;;;;;;;72.50;47.53;;;;;;;;;;10023244;28;20081;-74
2022/11/15 19:16:48;;;;;;;53.53;37.00;;;;;;;;;;10022079;28;20073;-71
2022/11/15 19:22:01;;;;;;;48.00;31.88;;;;;;;;;;10023053;28;20512;-73
2022/11/15 19:27:01;;;;;;;52.83;37.37;;;;;;;;;;10013292;28;20061;-68
2022/11/15 19:31:58;;;;;;;60.13;41.00;;;;;;;;;;10020126;28;20065;-70
2022/11/15 19:36:55;;;;;;;46.97;33.00;;;;;;;;;;10022057;28;20056;-72
2022/11/15 19:41:52;;;;;;;47.35;32.35;;;;;;;;;;10019837;28;20404;-68
2022/11/15 19:46:50;;;;;;;47.22;29.45;;;;;;;;;;10027274;28;20049;-68
2022/11/15 19:51:48;;;;;;;41.77;29.50;;;;;;;;;;10028758;28;20042;-72
2022/11/15 19:56:46;;;;;;;42.00;29.20;;;;;;;;;;10021965;28;20508;-70
2022/11/15 20:01:49;;;;;;;44.20;28.83;;;;;;;;;;10029026;28;20072;-71
2022/11/15 20:06:51;;;;;;;41.50;26.67;;;;;;;;;;10020943;28;20393;-69
2022/11/15 20:11:53;;;;;;;46.42;31.08;;;;;;;;;;10017003;28;20058;-70
2022/11/15 20:16:59;;;;;;;48.15;31.77;;;;;;;;;;10016686;28;20077;-70
2022/11/15 20:22:01;;;;;;;48.08;32.78;;;;;;;;;;10015157;28;20077;-69
2022/11/15 20:26:58;;;;;;;40.50;29.33;;;;;;;;;;10018968;28;20409;-72
2022/11/15 20:32:00;;;;;;;42.80;29.80;;;;;;;;;;10020668;28;20066;-72
2022/11/15 20:37:00;;;;;;;48.72;29.90;;;;;;;;;;10026750;28;20037;-72
2022/11/15 20:42:04;;;;;;;45.25;32.67;;;;;;;;;;10035554;28;20037;-69
2022/11/15 20:47:01;;;;;;;46.33;29.58;;;;;;;;;;10028270;28;20046;-70
2022/11/15 20:51:55;;;;;;;44.05;31.42;;;;;;;;;;10030495;28;20074;-72
2022/11/15 20:56:51;;;;;;;45.60;31.83;;;;;;;;;;10031014;28;20060;-70
2022/11/15 21:01:47;;;;;;;44.80;31.33;;;;;;;;;;10032309;28;20050;-72
2022/11/15 21:06:42;;;;;;;46.22;29.75;;;;;;;;;;10043505;28;20056;-72
2022/11/15 21:16:53;;;;;;;42.38;29.40;;;;;;;;;;10032467;28;20057;-72
2022/11/15 21:22:02;;;;;;;42.72;30.10;;;;;;;;;;10040152;28;20053;-72
2022/11/15 21:26:56;;;;;;;47.67;32.20;;;;;;;;;;10031894;28;20058;-71
2022/11/15 21:31:50;;;;;;;48.75;33.55;;;;;;;;;;10031062;28;20062;-70
2022/11/15 21:36:44;;;;;;;45.70;31.80;;;;;;;;;;10036820;28;20049;-71
2022/11/15 21:41:38;;;;;;;51.90;33.55;;;;;;;;;;10035432;28;20054;-71
2022/11/15 21:46:32;;;;;;;49.58;32.83;;;;;;;;;;10030773;28;20052;-71
2022/11/15 21:51:26;;;;;;;46.63;32.53;;;;;;;;;;10030304;28;20137;-71
2022/11/15 21:56:20;;;;;;;52.20;34.72;;;;;;;;;;10033233;28;20054;-71
2022/11/15 22:06:29;;;;;;;53.10;34.10;;;;;;;;;;10029741;28;20049;-71
2022/11/15 22:11:25;;;;;;;55.20;35.20;;;;;;;;;;10029179;28;20136;-71
2022/11/15 22:16:22;;;;;;;58.80;38.22;;;;;;;;;;10028114;28;20054;-71
2022/11/15 22:21:20;;;;;;;50.35;33.88;;;;;;;;;;10030671;28;20045;-71
2022/11/15 22:26:19;;;;;;;50.33;34.25;;;;;;;;;;10029990;28;20468;-71
2022/11/15 22:31:17;;;;;;;60.42;39.05;;;;;;;;;;10029416;28;20588;-71
2022/11/15 22:36:12;;;;;;;56.22;32.85;;;;;;;;;;10028521;28;20077;-71
2022/11/15 22:41:06;;;;;;;52.47;33.75;;;;;;;;;;10021085;28;20565;-71
2022/11/15 22:46:03;;;;;;;53.97;34.25;;;;;;;;;;10032633;28;20049;-72
2022/11/15 22:51:05;;;;;;;60.85;34.20;;;;;;;;;;10034625;28;20050;-71
2022/11/15 22:56:01;;;;;;;55.50;35.78;;;;;;;;;;10028123;28;20050;-70
2022/11/15 23:00:58;;;;;;;57.53;35.15;;;;;;;;;;10032555;28;20053;-70
2022/11/15 23:05:52;;;;;;;53.97;35.10;;;;;;;;;;10045300;28;20081;-74
2022/11/15 23:16:21;;;;;;;55.95;35.13;;;;;;;;;;10030159;28;20053;-74
2022/11/15 23:22:45;;;;;;;57.47;35.88;;;;;;;;;;10027991;28;20124;-73
2022/11/15 23:26:33;;;;;;;63.28;37.92;;;;;;;;;;10030318;28;20053;-73
2022/11/15 23:36:43;;;;;;;63.53;37.33;;;;;;;;;;10016920;28;20046;-72
2022/11/15 23:41:37;;;;;;;64.13;38.17;;;;;;;;;;10037855;28;20437;-71
2022/11/15 23:46:32;;;;;;;59.33;37.55;;;;;;;;;;10027022;28;20050;-72
2022/11/15 23:51:26;;;;;;;61.50;37.38;;;;;;;;;;10037621;28;20054;-72
2022/11/15 23:56:19;;;;;;;62.78;38.72;;;;;;;;;;10026364;28;20510;-72
